createdAt,value
2018-11-03T00:00:53.740Z,8.20
2018-11-03T00:03:21.852Z,9.60
2018-11-03T00:05:49.946Z,9.13
2018-11-03T00:08:18.064Z,9.38
2018-11-03T00:10:46.188Z,8.18
2018-11-03T00:13:14.541Z,9.15
2018-11-03T00:15:42.668Z,7.57
2018-11-03T00:18:10.794Z,13.10
2018-11-03T00:20:39.144Z,10.68
2018-11-03T00:23:07.824Z,7.80
2018-11-03T00:25:35.936Z,6.83
2018-11-03T00:28:04.263Z,8.53
2018-11-03T00:30:32.412Z,8.80
2018-11-03T00:33:00.578Z,10.53
2018-11-03T00:35:28.685Z,7.65
2018-11-03T00:37:57.010Z,7.40
2018-11-03T00:40:25.155Z,7.97
2018-11-03T00:42:53.300Z,9.43
2018-11-03T00:45:21.431Z,10.97
2018-11-03T00:47:49.501Z,13.73
2018-11-03T00:50:17.565Z,12.43
2018-11-03T00:52:45.680Z,13.25
2018-11-03T00:55:14.148Z,9.07
2018-11-03T00:57:42.731Z,10.83
2018-11-03T01:00:12.981Z,10.80
2018-11-03T01:02:42.709Z,12.13
2018-11-03T01:05:11.179Z,10.40
2018-11-03T01:07:40.271Z,10.40
2018-11-03T01:10:08.503Z,11.67
2018-11-03T01:12:37.560Z,11.68
2018-11-03T01:15:06.740Z,15.07
2018-11-03T01:17:34.872Z,12.23
2018-11-03T01:20:02.970Z,12.97
2018-11-03T01:22:31.091Z,13.07
2018-11-03T01:24:59.284Z,12.67
2018-11-03T01:27:27.433Z,13.57
2018-11-03T01:29:55.521Z,17.87
2018-11-03T01:32:23.678Z,11.75
2018-11-03T01:34:51.776Z,13.17
2018-11-03T01:37:19.943Z,11.57
2018-11-03T01:39:48.088Z,20.20
2018-11-03T01:42:16.252Z,13.40
2018-11-03T01:44:44.385Z,13.03
2018-11-03T01:47:12.536Z,12.80
2018-11-03T01:49:40.635Z,13.83
2018-11-03T01:52:08.733Z,19.13
2018-11-03T01:54:36.912Z,11.70
2018-11-03T01:57:05.641Z,13.72
2018-11-03T01:59:33.869Z,16.05
2018-11-03T02:02:02.048Z,18.60
2018-11-03T02:04:30.372Z,17.17
2018-11-03T02:06:58.534Z,14.98
2018-11-03T02:09:26.701Z,15.32
2018-11-03T02:11:54.846Z,13.93
2018-11-03T02:14:23.097Z,12.75
2018-11-03T02:16:51.323Z,13.90
2018-11-03T02:19:19.485Z,20.63
2018-11-03T02:21:47.670Z,19.30
2018-11-03T02:24:15.860Z,16.67
2018-11-03T02:26:43.992Z,14.33
2018-11-03T02:29:12.167Z,15.60
2018-11-03T02:31:40.343Z,20.80
2018-11-03T02:34:08.490Z,16.90
2018-11-03T02:36:36.641Z,16.23
2018-11-03T02:39:07.063Z,18.50
2018-11-03T02:41:35.234Z,14.97
2018-11-03T02:44:03.402Z,19.50
2018-11-03T02:46:31.582Z,14.70
2018-11-03T02:48:59.716Z,14.25
2018-11-03T02:51:27.890Z,19.62
2018-11-03T02:53:56.034Z,15.38
2018-11-03T02:56:24.226Z,16.45
2018-11-03T02:58:52.374Z,16.52
2018-11-03T03:01:20.519Z,13.43
2018-11-03T03:03:48.679Z,19.10
2018-11-03T03:06:16.832Z,21.07
2018-11-03T03:08:44.986Z,15.32
2018-11-03T03:11:13.135Z,16.33
2018-11-03T03:13:41.661Z,15.03
2018-11-03T03:16:09.833Z,15.60
2018-11-03T03:18:38.015Z,18.07
2018-11-03T03:21:06.447Z,20.83
2018-11-03T03:23:34.608Z,22.90
2018-11-03T03:26:02.791Z,19.10
2018-11-03T03:28:30.913Z,24.07
2018-11-03T03:30:59.034Z,19.90
2018-11-03T03:33:27.181Z,22.58
2018-11-03T03:35:55.451Z,23.40
2018-11-03T03:38:23.590Z,20.10
2018-11-03T03:40:51.913Z,20.80
2018-11-03T03:43:20.140Z,17.63
2018-11-03T03:45:48.364Z,17.85
2018-11-03T03:48:16.611Z,18.90
2018-11-03T03:50:44.730Z,19.50
2018-11-03T03:53:12.844Z,20.80
2018-11-03T03:55:41.018Z,18.48
2018-11-03T03:58:09.241Z,22.85
2018-11-03T04:00:37.401Z,19.80
2018-11-03T04:03:05.685Z,18.05
2018-11-03T04:05:33.874Z,18.30
2018-11-03T04:08:01.976Z,22.07
2018-11-03T04:10:30.125Z,17.02
2018-11-03T04:12:58.305Z,18.63
2018-11-03T04:15:26.468Z,18.03
2018-11-03T04:17:54.636Z,19.30
2018-11-03T04:20:22.843Z,19.10
2018-11-03T04:22:51.017Z,20.30
2018-11-03T04:25:19.189Z,16.03
2018-11-03T04:27:47.392Z,18.47
2018-11-03T04:30:15.573Z,18.53
2018-11-03T04:32:44.393Z,22.70
2018-11-03T04:35:12.584Z,19.93
2018-11-03T04:37:41.085Z,17.83
2018-11-03T04:40:10.995Z,17.30
2018-11-03T04:42:39.374Z,17.57
2018-11-03T04:45:08.081Z,17.47
2018-11-03T04:47:36.553Z,21.35
2018-11-03T04:50:05.055Z,21.20
2018-11-03T04:52:34.065Z,25.23
2018-11-03T04:55:02.215Z,22.95
2018-11-03T04:57:30.351Z,22.20
2018-11-03T04:59:58.540Z,19.97
2018-11-03T05:02:26.718Z,22.70
2018-11-03T05:04:54.982Z,25.97
2018-11-03T05:07:23.141Z,20.00
2018-11-03T05:09:51.290Z,26.52
2018-11-03T05:12:19.431Z,26.20
2018-11-03T05:14:47.601Z,24.17
2018-11-03T05:17:15.836Z,24.50
2018-11-03T05:19:44.020Z,21.77
2018-11-03T05:22:12.166Z,22.53
2018-11-03T05:24:40.419Z,20.83
2018-11-03T05:27:08.596Z,21.40
2018-11-03T05:29:36.748Z,23.23
2018-11-03T05:32:05.255Z,23.70
2018-11-03T05:34:33.481Z,22.00
2018-11-03T05:37:01.629Z,25.48
2018-11-03T05:39:29.793Z,23.00
2018-11-03T05:41:57.988Z,22.00
2018-11-03T05:44:26.138Z,20.13
2018-11-03T05:46:54.274Z,26.48
2018-11-03T05:49:22.483Z,23.62
2018-11-03T05:51:50.609Z,23.65
2018-11-03T05:54:18.798Z,24.10
2018-11-03T05:56:46.984Z,22.52
2018-11-03T05:59:15.120Z,24.10
2018-11-03T06:01:43.286Z,24.00
2018-11-03T06:04:11.433Z,27.40
2018-11-03T06:06:39.633Z,23.10
2018-11-03T06:09:08.989Z,22.50
2018-11-03T06:11:37.154Z,23.63
2018-11-03T06:14:05.355Z,25.17
2018-11-03T06:16:33.557Z,28.43
2018-11-03T06:19:01.735Z,22.43
2018-11-03T06:21:29.861Z,23.80
2018-11-03T06:23:58.030Z,22.97
2018-11-03T06:26:26.198Z,21.50
2018-11-03T06:28:54.393Z,24.67
2018-11-03T06:31:22.552Z,24.05
2018-11-03T06:33:50.729Z,27.80
2018-11-03T06:36:18.873Z,30.73
2018-11-03T06:38:47.089Z,25.17
2018-11-03T06:41:15.209Z,23.52
2018-11-03T06:43:43.383Z,25.92
2018-11-03T06:46:11.550Z,30.12
2018-11-03T06:48:39.709Z,27.13
2018-11-03T06:51:07.878Z,27.75
2018-11-03T06:53:36.111Z,28.23
2018-11-03T06:56:04.355Z,26.40
2018-11-03T06:58:32.481Z,30.70
2018-11-03T07:01:00.710Z,28.67
2018-11-03T07:03:28.866Z,31.27
2018-11-03T07:05:57.001Z,29.77
2018-11-03T07:08:25.174Z,36.47
2018-11-03T07:10:53.363Z,35.77
2018-11-03T07:13:21.624Z,35.33
2018-11-03T07:15:49.782Z,38.90
2018-11-03T07:18:17.985Z,36.73
2018-11-03T07:20:46.170Z,32.20
2018-11-03T07:23:14.372Z,29.13
2018-11-03T07:25:42.525Z,31.20
2018-11-03T07:28:10.685Z,34.97
2018-11-03T07:30:38.854Z,32.13
2018-11-03T07:33:07.045Z,33.97
2018-11-03T07:35:35.173Z,29.65
2018-11-03T07:38:03.312Z,31.30
2018-11-03T07:40:31.448Z,33.50
2018-11-03T07:42:59.612Z,37.05
2018-11-03T07:45:27.822Z,33.75
2018-11-03T07:47:56.064Z,32.80
2018-11-03T07:50:24.225Z,36.35
2018-11-03T07:52:52.421Z,41.30
2018-11-03T07:55:20.620Z,35.17
2018-11-03T07:57:48.792Z,31.40
2018-11-03T08:00:17.000Z,37.80
2018-11-03T08:02:45.143Z,35.70
2018-11-03T08:05:13.275Z,40.33
2018-11-03T08:07:41.442Z,44.57
2018-11-03T08:10:10.736Z,31.40
2018-11-03T08:12:38.938Z,32.63
2018-11-03T08:15:08.136Z,34.80
2018-11-03T08:17:36.355Z,34.57
2018-11-03T08:20:04.697Z,31.37
2018-11-03T08:22:32.933Z,35.83
2018-11-03T08:25:01.148Z,29.60
2018-11-03T08:27:29.346Z,31.20
2018-11-03T08:29:57.567Z,30.90
2018-11-03T08:32:25.886Z,25.57
2018-11-03T08:34:54.062Z,28.20
2018-11-03T08:37:22.219Z,26.57
2018-11-03T08:39:50.432Z,28.07
2018-11-03T08:42:18.613Z,29.72
2018-11-03T08:44:46.802Z,25.97
2018-11-03T08:47:15.015Z,25.80
2018-11-03T08:49:43.314Z,28.15
2018-11-03T08:52:11.462Z,25.60
2018-11-03T08:54:39.658Z,25.00
2018-11-03T08:57:07.857Z,24.57
2018-11-03T08:59:36.087Z,24.03
2018-11-03T09:02:04.232Z,22.87
2018-11-03T09:04:32.421Z,23.50
2018-11-03T09:07:00.680Z,20.82
2018-11-03T09:09:29.048Z,21.57
2018-11-03T09:11:57.410Z,22.37
2018-11-03T09:14:25.597Z,21.20
2018-11-03T09:16:53.808Z,19.20
2018-11-03T09:19:22.026Z,20.85
2018-11-03T09:21:50.274Z,20.27
2018-11-03T09:24:18.392Z,23.30
2018-11-03T09:26:46.581Z,20.50
2018-11-03T09:29:14.805Z,20.30
2018-11-03T09:31:42.968Z,19.67
2018-11-03T09:34:11.166Z,17.87
2018-11-03T09:36:39.373Z,19.12
2018-11-03T09:39:09.457Z,19.92
2018-11-03T09:41:37.770Z,20.57
2018-11-03T09:44:05.945Z,17.25
2018-11-03T09:46:34.206Z,17.67
2018-11-03T09:49:02.487Z,16.32
2018-11-03T09:51:30.688Z,15.43
2018-11-03T09:53:58.822Z,19.02
2018-11-03T09:56:27.034Z,17.27
2018-11-03T09:58:55.150Z,15.87
2018-11-03T10:01:23.321Z,17.00
2018-11-03T10:03:51.505Z,14.78
2018-11-03T10:06:19.717Z,14.80
2018-11-03T10:08:47.861Z,18.63
2018-11-03T10:11:16.035Z,13.93
2018-11-03T10:13:44.230Z,14.30
2018-11-03T10:16:12.405Z,13.67
2018-11-03T10:18:40.591Z,14.53
2018-11-03T10:21:08.736Z,13.33
2018-11-03T10:23:36.895Z,14.60
2018-11-03T10:26:05.297Z,12.73
2018-11-03T10:28:33.469Z,13.27
2018-11-03T10:31:01.891Z,12.37
2018-11-03T10:33:30.073Z,10.72
2018-11-03T10:35:58.350Z,10.03
2018-11-03T10:38:26.534Z,11.35
2018-11-03T10:40:54.743Z,11.80
2018-11-03T10:43:22.906Z,11.50
2018-11-03T10:45:51.092Z,12.33
2018-11-03T10:48:19.263Z,13.30
2018-11-03T10:50:47.442Z,10.13
2018-11-03T10:53:15.581Z,13.63
2018-11-03T10:55:43.796Z,9.57
2018-11-03T10:58:11.974Z,7.93
2018-11-03T11:00:45.561Z,7.77
2018-11-03T11:03:19.338Z,8.20
2018-11-03T11:05:52.739Z,8.53
2018-11-03T11:08:26.175Z,8.10
2018-11-03T11:10:59.756Z,7.80
2018-11-03T11:13:29.778Z,8.35
2018-11-03T11:15:58.958Z,10.78
2018-11-03T11:18:27.022Z,9.38
2018-11-03T11:20:55.193Z,8.18
2018-11-03T11:23:23.509Z,6.65
2018-11-03T11:25:51.569Z,8.50
2018-11-03T11:28:19.738Z,8.60
2018-11-03T11:30:47.873Z,6.40
2018-11-03T11:33:17.034Z,7.30
2018-11-03T11:35:45.234Z,7.50
2018-11-03T11:38:14.043Z,7.87
2018-11-03T11:40:42.485Z,8.25
2018-11-03T11:43:11.561Z,8.00
2018-11-03T11:45:39.997Z,9.90
2018-11-03T11:48:08.144Z,8.83
2018-11-03T11:50:36.277Z,9.63
2018-11-03T11:53:04.690Z,9.67
2018-11-03T11:55:32.853Z,9.73
2018-11-03T11:58:01.041Z,8.30
2018-11-03T12:00:29.243Z,9.68
2018-11-03T12:02:57.463Z,9.83
2018-11-03T12:05:25.589Z,9.73
2018-11-03T12:07:53.733Z,7.78
2018-11-03T12:10:21.867Z,9.53
2018-11-03T12:12:50.031Z,9.00
2018-11-03T12:15:18.193Z,7.55
2018-11-03T12:17:46.330Z,7.90
2018-11-03T12:20:14.453Z,9.53
2018-11-03T12:22:42.641Z,8.00
2018-11-03T12:25:11.488Z,5.97
2018-11-03T12:27:40.065Z,6.17
2018-11-03T12:30:10.299Z,8.50
2018-11-03T12:32:38.681Z,7.67
2018-11-03T12:35:07.158Z,9.73
2018-11-03T12:37:35.402Z,9.10
2018-11-03T12:40:03.608Z,8.30
2018-11-03T12:42:31.722Z,13.30
2018-11-03T12:44:59.878Z,12.87
2018-11-03T12:47:27.986Z,10.50
2018-11-03T12:49:59.070Z,9.37
2018-11-03T12:52:28.072Z,10.87
2018-11-03T12:54:56.251Z,9.10
2018-11-03T12:57:24.545Z,10.25
2018-11-03T12:59:52.777Z,9.18
2018-11-03T13:02:20.950Z,8.73
2018-11-03T13:04:49.325Z,7.80
2018-11-03T13:07:17.469Z,9.85
2018-11-03T13:09:45.618Z,8.10
2018-11-03T13:12:13.813Z,9.70
2018-11-03T13:14:41.942Z,9.43
2018-11-03T13:17:10.102Z,8.93
2018-11-03T13:19:38.285Z,7.00
2018-11-03T13:22:06.430Z,7.47
2018-11-03T13:24:34.645Z,4.60
2018-11-03T13:27:02.778Z,5.75
2018-11-03T13:29:30.903Z,5.40
2018-11-03T13:31:59.038Z,4.12
2018-11-03T13:34:27.165Z,5.00
2018-11-03T13:36:55.317Z,6.15
2018-11-03T13:39:23.426Z,6.07
2018-11-03T13:41:51.573Z,5.13
2018-11-03T13:44:19.696Z,5.72
2018-11-03T13:46:47.820Z,7.83
2018-11-03T13:49:15.955Z,4.83
2018-11-03T13:51:44.089Z,6.50
2018-11-03T13:54:12.242Z,5.20
2018-11-03T13:56:40.406Z,5.93
2018-11-03T13:59:08.537Z,4.10
2018-11-03T14:01:36.686Z,4.53
2018-11-03T14:04:04.859Z,3.83
2018-11-03T14:06:32.993Z,4.10
2018-11-03T14:09:01.129Z,4.77
2018-11-03T14:11:29.292Z,3.67
2018-11-03T14:13:57.445Z,3.60
2018-11-03T14:16:25.602Z,5.20
2018-11-03T14:18:53.722Z,2.33
2018-11-03T14:21:21.864Z,2.90
2018-11-03T14:23:50.009Z,2.80
2018-11-03T14:26:18.178Z,6.37
2018-11-03T14:28:46.327Z,2.50
2018-11-03T14:31:14.482Z,2.80
2018-11-03T14:33:42.730Z,2.50
2018-11-03T14:36:10.891Z,2.60
2018-11-03T14:38:39.018Z,3.50
2018-11-03T14:41:07.191Z,3.13
2018-11-03T14:43:35.325Z,3.40
2018-11-03T14:46:03.512Z,2.23
2018-11-03T14:48:31.672Z,2.70
2018-11-03T14:50:59.868Z,3.17
2018-11-03T14:53:28.101Z,2.90
2018-11-03T14:55:56.177Z,3.03
2018-11-03T14:58:24.310Z,3.58
2018-11-03T15:00:52.456Z,4.62
2018-11-03T15:03:20.634Z,2.98
2018-11-03T15:05:48.814Z,3.52
2018-11-03T15:08:17.033Z,3.05
2018-11-03T15:10:45.153Z,4.90
2018-11-03T15:13:13.295Z,5.10
2018-11-03T15:15:41.447Z,5.53
2018-11-03T15:18:09.593Z,4.70
2018-11-03T15:20:37.747Z,4.42
2018-11-03T15:23:06.015Z,4.13
2018-11-03T15:25:34.145Z,4.08
2018-11-03T15:28:02.307Z,4.67
2018-11-03T15:30:30.413Z,4.90
2018-11-03T15:32:58.585Z,4.63
2018-11-03T15:35:26.712Z,6.73
2018-11-03T15:37:54.841Z,5.95
2018-11-03T15:40:22.949Z,6.07
2018-11-03T15:42:51.102Z,5.97
2018-11-03T15:45:19.229Z,6.10
2018-11-03T15:47:47.908Z,6.30
2018-11-03T15:50:16.620Z,10.80
2018-11-03T15:52:45.205Z,6.27
2018-11-03T15:55:13.372Z,6.67
2018-11-03T15:57:41.473Z,4.78
2018-11-03T16:00:12.418Z,12.97
2018-11-03T16:02:40.549Z,6.73
2018-11-03T16:05:08.685Z,5.93
2018-11-03T16:07:36.797Z,4.40
2018-11-03T16:10:06.242Z,7.80
2018-11-03T16:12:34.456Z,8.60
2018-11-03T16:15:02.525Z,4.57
2018-11-03T16:17:30.737Z,6.08
2018-11-03T16:19:58.849Z,8.67
2018-11-03T16:22:27.043Z,4.12
2018-11-03T16:24:55.167Z,3.63
2018-11-03T16:27:23.276Z,6.10
2018-11-03T16:29:51.983Z,4.10
2018-11-03T16:32:20.191Z,3.77
2018-11-03T16:34:48.259Z,3.27
2018-11-03T16:37:16.425Z,3.27
2018-11-03T16:39:44.521Z,3.83
2018-11-03T16:42:12.667Z,3.73
2018-11-03T16:44:40.779Z,5.57
2018-11-03T16:47:08.905Z,2.80
2018-11-03T16:49:37.009Z,4.05
2018-11-03T16:52:05.369Z,4.10
2018-11-03T16:54:33.502Z,4.57
2018-11-03T16:57:01.633Z,6.67
2018-11-03T16:59:29.770Z,6.28
2018-11-03T17:01:57.912Z,8.50
2018-11-03T17:04:26.045Z,5.20
2018-11-03T17:06:54.229Z,8.10
2018-11-03T17:09:22.306Z,6.27
2018-11-03T17:11:50.446Z,6.13
2018-11-03T17:14:18.601Z,6.40
2018-11-03T17:16:46.729Z,7.87
2018-11-03T17:19:14.861Z,6.90
2018-11-03T17:21:42.992Z,8.40
2018-11-03T17:24:11.123Z,10.00
2018-11-03T17:26:39.391Z,7.87
2018-11-03T17:29:07.674Z,7.10
2018-11-03T17:31:36.068Z,7.72
2018-11-03T17:34:04.674Z,7.83
2018-11-03T17:36:32.878Z,6.70
2018-11-03T17:39:00.937Z,8.47
2018-11-03T17:41:29.061Z,7.30
2018-11-03T17:43:57.273Z,9.67
2018-11-03T17:46:25.372Z,8.80
2018-11-03T17:48:53.522Z,7.73
2018-11-03T17:51:21.685Z,6.93
2018-11-03T17:53:49.830Z,9.73
2018-11-03T17:56:17.938Z,10.23
2018-11-03T17:58:46.059Z,7.40
2018-11-03T18:01:14.275Z,7.43
2018-11-03T18:03:43.335Z,7.50
2018-11-03T18:06:11.474Z,6.77
2018-11-03T18:08:39.625Z,6.67
2018-11-03T18:11:07.780Z,8.70
2018-11-03T18:13:36.118Z,7.40
2018-11-03T18:16:04.253Z,9.00
2018-11-03T18:18:32.425Z,6.70
2018-11-03T18:21:00.577Z,9.03
2018-11-03T18:23:28.714Z,9.10
2018-11-03T18:25:56.904Z,9.20
2018-11-03T18:28:24.996Z,9.00
2018-11-03T18:30:53.166Z,8.97
2018-11-03T18:33:21.300Z,9.00
2018-11-03T18:35:49.340Z,8.85
2018-11-03T18:38:17.480Z,8.70
2018-11-03T18:40:45.614Z,11.77
2018-11-03T18:43:13.766Z,8.57
2018-11-03T18:45:42.670Z,9.50
2018-11-03T18:48:10.784Z,8.78
2018-11-03T18:50:39.002Z,9.07
2018-11-03T18:53:07.106Z,8.50
2018-11-03T18:55:35.240Z,7.92
2018-11-03T18:58:03.377Z,11.30
2018-11-03T19:00:31.518Z,8.58
2018-11-03T19:02:59.644Z,9.13
2018-11-03T19:05:27.797Z,9.07
2018-11-03T19:07:55.902Z,9.20
2018-11-03T19:10:24.055Z,7.70
2018-11-03T19:12:52.233Z,8.23
2018-11-03T19:15:20.344Z,6.77
2018-11-03T19:17:48.488Z,8.33
2018-11-03T19:20:16.881Z,9.13
2018-11-03T19:22:45.005Z,9.30
2018-11-03T19:25:14.051Z,8.27
2018-11-03T19:27:42.186Z,9.57
2018-11-03T19:30:11.642Z,10.13
2018-11-03T19:32:40.829Z,8.80
2018-11-03T19:35:09.221Z,8.27
2018-11-03T19:37:37.361Z,8.87
2018-11-03T19:40:06.514Z,8.30
2018-11-03T19:42:34.694Z,10.05
2018-11-03T19:45:02.852Z,10.20
2018-11-03T19:47:30.988Z,9.30
2018-11-03T19:49:59.177Z,8.87
2018-11-03T19:52:27.345Z,7.93
2018-11-03T19:54:55.516Z,8.13
2018-11-03T19:57:23.676Z,8.57
2018-11-03T19:59:51.829Z,9.63
2018-11-03T20:02:19.979Z,9.10
2018-11-03T20:04:48.094Z,8.80
2018-11-03T20:07:16.257Z,8.60
2018-11-03T20:09:44.427Z,9.13
2018-11-03T20:12:12.562Z,7.50
2018-11-03T20:14:40.693Z,7.77
2018-11-03T20:17:08.807Z,8.33
2018-11-03T20:19:36.923Z,7.03
2018-11-03T20:22:05.409Z,7.10
2018-11-03T20:24:33.533Z,7.10
2018-11-03T20:27:01.710Z,9.30
2018-11-03T20:29:29.889Z,8.90
2018-11-03T20:31:58.145Z,7.50
2018-11-03T20:34:26.247Z,7.70
2018-11-03T20:36:54.385Z,9.03
2018-11-03T20:39:22.513Z,8.43
2018-11-03T20:41:50.677Z,9.58
2018-11-03T20:44:18.821Z,10.30
2018-11-03T20:46:46.936Z,9.40
2018-11-03T20:49:15.054Z,10.32
2018-11-03T20:51:43.225Z,10.38
2018-11-03T20:54:11.369Z,8.37
2018-11-03T20:56:39.482Z,11.60
2018-11-03T20:59:07.600Z,8.43
2018-11-03T21:01:35.742Z,7.92
2018-11-03T21:04:03.829Z,9.73
2018-11-03T21:06:31.973Z,9.20
2018-11-03T21:09:00.142Z,8.13
2018-11-03T21:11:28.296Z,9.27
2018-11-03T21:13:56.399Z,14.45
2018-11-03T21:16:24.572Z,8.43
2018-11-03T21:18:52.757Z,7.60
2018-11-03T21:21:20.778Z,10.73
2018-11-03T21:23:48.933Z,8.80
2018-11-03T21:26:17.078Z,9.83
2018-11-03T21:28:45.221Z,9.57
2018-11-03T21:31:13.361Z,10.23
2018-11-03T21:33:42.310Z,10.90
2018-11-03T21:36:10.472Z,11.75
2018-11-03T21:38:38.709Z,12.43
2018-11-03T21:41:06.812Z,11.18
2018-11-03T21:43:35.003Z,12.03
2018-11-03T21:46:03.165Z,12.17
2018-11-03T21:48:31.274Z,10.50
2018-11-03T21:50:59.421Z,7.90
2018-11-03T21:53:27.600Z,9.23
2018-11-03T21:55:55.824Z,8.00
2018-11-03T21:58:23.898Z,9.63
2018-11-03T22:00:52.034Z,9.83
2018-11-03T22:03:20.247Z,10.10
2018-11-03T22:05:48.356Z,10.07
2018-11-03T22:08:16.490Z,9.33
2018-11-03T22:10:44.657Z,9.10
2018-11-03T22:13:12.883Z,9.60
2018-11-03T22:15:41.067Z,11.30
2018-11-03T22:18:09.141Z,10.93
2018-11-03T22:20:37.282Z,12.63
2018-11-03T22:23:05.811Z,12.73
2018-11-03T22:25:33.944Z,13.00
2018-11-03T22:28:02.219Z,11.37
2018-11-03T22:30:30.276Z,11.63
2018-11-03T22:32:58.426Z,13.00
2018-11-03T22:35:26.557Z,12.20
2018-11-03T22:37:55.188Z,13.83
2018-11-03T22:40:23.351Z,13.13
2018-11-03T22:42:51.478Z,13.72
2018-11-03T22:45:19.649Z,11.10
2018-11-03T22:47:47.819Z,12.90
2018-11-03T22:50:15.950Z,15.45
2018-11-03T22:52:44.146Z,11.43
2018-11-03T22:55:12.265Z,12.50
2018-11-03T22:57:40.413Z,15.37
2018-11-03T23:00:11.313Z,13.83
2018-11-03T23:02:39.472Z,13.70
2018-11-03T23:05:08.545Z,17.40
2018-11-03T23:07:36.694Z,11.60
2018-11-03T23:10:05.176Z,15.30
2018-11-03T23:12:33.330Z,15.57
2018-11-03T23:15:01.442Z,13.37
2018-11-03T23:17:29.608Z,23.67
2018-11-03T23:19:57.782Z,14.68
2018-11-03T23:22:25.979Z,15.15
2018-11-03T23:24:54.109Z,15.63
2018-11-03T23:27:22.261Z,16.80
2018-11-03T23:29:50.532Z,18.90
2018-11-03T23:32:18.548Z,14.40
2018-11-03T23:34:46.692Z,14.67
2018-11-03T23:37:14.811Z,18.73
2018-11-03T23:39:42.956Z,14.10
2018-11-03T23:42:11.109Z,15.20
2018-11-03T23:44:39.275Z,12.77
2018-11-03T23:47:07.389Z,12.23
2018-11-03T23:49:35.554Z,13.93
2018-11-03T23:52:03.704Z,14.33
2018-11-03T23:54:31.841Z,12.20
2018-11-03T23:56:59.987Z,13.73
2018-11-03T23:59:28.245Z,16.43
